Flight Track Log - Related Links

Times and Time Zones

All times are in EDT time to prevent confusion due to time zone crossing. See the CDG4622 flight status page for this flight to view local times or setup timezone preferences in your user account.

Time Position Orientation Groundspeed Altitude Reporting Facility
EDT Latitude Longitude Course Direction KTS MPH feet Rate Location/Type
Wed 04:01:00 AM 38.2256 121.2104 199° South  Level Estimated
Wed 04:02:00 AM 38.1583 121.1809 199° South  Level Estimated
Wed 04:03:00 AM 38.0910 121.1515 199° South  Level Estimated
Wed 04:04:00 AM 38.0236 121.1221 199° South  Level Estimated
Wed 04:05:00 AM 37.9563 121.0928 199° South  Level Estimated
Wed 04:06:00 AM 37.8889 121.0635 199° South  Level Estimated
Wed 04:07:00 AM 37.8216 121.0342 199° South  Level Estimated
Wed 04:08:00 AM 37.7542 121.0051 199° South  Level Estimated
Wed 04:09:00 AM 37.6868 120.9759 199° South  Level Estimated
Wed 04:10:00 AM 37.6194 120.9469 199° South  Level Estimated
Wed 04:11:00 AM 37.5521 120.9178 199° South  Level Estimated
Wed 04:12:00 AM 37.4846 120.8889 199° South  Level Estimated
Wed 04:13:00 AM 37.4173 120.8600 199° South  Level Estimated
Wed 04:14:00 AM 37.3498 120.8311 199° South  Level Estimated
Wed 04:15:00 AM 37.2824 120.8023 199° South  Level Estimated
Wed 04:16:00 AM 37.2150 120.7735 199° South  Level Estimated
Wed 04:17:00 AM 37.1476 120.7448 199° South  Level Estimated
Wed 04:18:00 AM 37.0801 120.7162 199° South  Level Estimated
Wed 04:19:00 AM 37.0127 120.6876 199° South  Level Estimated
Wed 04:20:00 AM 36.9452 120.6590 199° South  Level Estimated
Wed 04:21:00 AM 36.8778 120.6305 199° South  Level Estimated
Wed 04:22:00 AM 36.8103 120.6021 199° South  Level Estimated
Wed 04:23:00 AM 36.7429 120.5736 199° South  Level Estimated
Wed 04:24:00 AM 36.6754 120.5453 199° South  Level Estimated
Wed 04:25:00 AM 36.6079 120.5170 199° South  Level Estimated
Wed 04:26:00 AM 36.5404 120.4887 199° South  Level Estimated
Wed 04:27:00 AM 36.4729 120.4605 199° South  Level Estimated
Wed 04:28:00 AM 36.4054 120.4324 199° South  Level Estimated
Wed 04:29:00 AM 36.3379 120.4043 199° South  Level Estimated
Wed 04:30:00 AM 36.2704 120.3762 199° South  Level Estimated
Wed 04:31:00 AM 36.2661 120.3744 199° South  Level Estimated
Wed 04:32:00 AM 36.2661 120.3744 238° Southwest  Level Estimated
Wed 04:33:00 AM 36.2661 120.3744 238° Southwest  Level Estimated
Wed 04:34:00 AM 36.2661 120.3744 238° Southwest  Level Estimated
Wed 04:35:00 AM 36.2661 120.3744 238° Southwest  Level Estimated

Login

Don't have an account? Register now (free) for customized features, flight alerts, and more!